Palmer, PR

3:52 AM AST on October 26, 2014 (GMT -0400)
Mercedita | Change Station
CLOSE
Current Station
Airport
Location: Ponce,
Elevation: 30 ft
Nearby Weather Stations

Elev 30 ft 18.01 °N, 66.56 °W | Updated 1 hour ago

Partly Cloudy
Partly Cloudy
77 °F
Feels Like 77 °F
N
6
Wind Variable Wind from NE

Today
High -- | Low -- °F
--% Chance of Precip.
Yesterday
High -- | Low -- °F
Precip. -- in
6:20 AM 5:53 PM
Waxing Crescent, 6% visible
Pressure 29.84 in
Visibility 8.0 miles
Clouds Few 3000 ft
Dew Point 73 °F
Humidity 89%
Rainfall 0.00 in
Snow Depth Not available.
UV 0 out of 12
Pollen Not available.
Air Quality Not available.
Flu Activity Local Activity
METAR TJPS 260650Z 05005KT 8SM FEW030 25/23 A2984

More Conditions Fewer Conditions

Pressure 29.84 in
Visibility 8.0 miles
Clouds Few 3000 ft
Dew Point 73 °F
Humidity 89%
Rainfall 0.00 in
Snow Depth Not available.
UV 0 out of 12
Pollen Not available.
Air Quality Not available.
Flu Activity Local Activity
METAR TJPS 260650Z 05005KT 8SM FEW030 25/23 A2984

More Conditions Fewer Conditions

10-Day Weather Forecast

Almanac

Astronomy

Oct. 26, 2014 Rise Set
Actual Time 6:20 AM AST 5:53 PM AST
Civil Twilight 5:58 AM AST 6:15 PM AST
Nautical Twilight 5:32 AM AST 6:41 PM AST
Astronomical Twilight 5:06 AM AST 7:07 PM AST
Moon 8:40 AM AST 8:16 PM AST
Length of Visible Light 12h 17m
Length of Day
11h 33m
Tomorrow will be 0m 56s shorter.
Waxing Crescent, 6% of the Moon is Illuminated
Today
Waxing Crescent
Oct 30
First Quarter
Nov 6
Full
Nov 14
Last Quarter
Nov 22
New

Community

WunderPhotos

Upload Photos

1,765,115 photos uploaded!

Nearby

Snow Depth

Station Depth Elevation
No new snow has been reported.

Earthquake Activity

City Distance Mag. Time & Date
No recent earthquake activity has been reported nearby.
Minimum magnitude displayed is 2.5.

Coastal Water Temperatures

Place Temperature
San Juan, PR 86.0 °F
Mayaguez, PR 84.9 °F
Esperanza, PR 84.9 °F

Nearby Weather Stations